Terminal Aerodrome Forecast
Issued by NWS Goodland, KS

Home | Current Version | Previous Version | Graphics & Text | Print | Product List | Glossary On
Versions: 1 2 3 4 5 6 7 8 9 10 11 12
000
FTUS43 KGLD 251732
TAFGLD
TAF
KGLD 251732Z 2518/2618 18016G24KT P6SM SKC
     FM260300 19012KT P6SM VCTS SCT080CB BKN150
     FM260600 19008KT P6SM SCT080 BKN130
     FM260700 22007KT P6SM SCT080 BKN140 WS020/23030KT
     FM261000 30006KT P6SM SCT080 BKN150
     FM261500 35011KT P6SM BKN040=

USA.gov is the U.S. government's official web portal to all federal, state and local government web resources and services.